Time;durP1;ratioP1;P1;durP2;ratioP2;P2;SDS_P1;SDS_P2;PMS_P1;PMS_P2;Temp;Humidity;BMP_temperature;BMP_pressure;BME280_temperature;BME280_humidity;BME280_pressure;Samples;Min_cycle;Max_cycle;Signal;HPM_P1;HPM_P2
2023/02/21 02:14:15;;;;;;;66.03;30.38;;;6.50;99.90;;;;;;4935956;28;20057;-75
2023/02/21 02:17:04;;;;;;;54.28;29.63;;;6.70;99.90;;;;;;4940463;28;20039;-75
2023/02/21 02:19:58;;;;;;;66.80;30.83;;;6.60;99.90;;;;;;4945515;29;20557;-74
2023/02/21 02:23:02;;;;;;;61.00;32.50;;;6.50;99.90;;;;;;4948919;29;20035;-75
2023/02/21 02:25:39;;;;;;;56.83;29.60;;;6.50;99.90;;;;;;4946864;29;20492;-75
2023/02/21 02:28:36;;;;;;;59.17;31.40;;;6.40;99.90;;;;;;4934931;28;20086;-75
2023/02/21 02:31:28;;;;;;;57.30;30.48;;;6.50;99.90;;;;;;4943864;28;20027;-75
2023/02/21 02:34:34;;;;;;;52.90;27.88;;;6.60;99.90;;;;;;4936844;29;20067;-75
2023/02/21 02:37:22;;;;;;;59.28;27.67;;;6.30;99.90;;;;;;4934116;29;20036;-76
2023/02/21 02:39:53;;;;;;;59.55;29.05;;;6.30;99.90;;;;;;4941529;28;20035;-75
2023/02/21 02:42:44;;;;;;;50.05;26.58;;;6.20;99.90;;;;;;4933886;28;20045;-75
2023/02/21 02:45:34;;;;;;;57.88;28.90;;;6.20;99.90;;;;;;4936528;28;20185;-75
2023/02/21 02:48:15;;;;;;;56.78;27.90;;;6.30;99.90;;;;;;4930490;29;20489;-75
2023/02/21 02:50:44;;;;;;;54.92;29.38;;;6.20;99.90;;;;;;4934700;28;20046;-74
2023/02/21 02:53:10;;;;;;;55.45;28.42;;;6.20;99.90;;;;;;4942612;29;20035;-74
2023/02/21 02:55:51;;;;;;;52.13;28.42;;;6.10;99.90;;;;;;4946608;28;20038;-74
2023/02/21 02:58:21;;;;;;;57.47;28.38;;;6.10;99.90;;;;;;4933053;29;20047;-74
2023/02/21 03:01:11;;;;;;;51.85;26.48;;;6.00;99.90;;;;;;4938045;28;20031;-74
2023/02/21 03:04:15;;;;;;;51.05;24.60;;;5.90;99.90;;;;;;4934011;29;20569;-75
2023/02/21 03:06:54;;;;;;;45.83;25.25;;;5.90;99.90;;;;;;4900015;29;20408;-75
2023/02/21 03:09:46;;;;;;;53.42;25.25;;;6.00;99.90;;;;;;4939508;29;20074;-76
2023/02/21 03:12:37;;;;;;;50.90;24.20;;;6.10;99.90;;;;;;4934727;28;20039;-75
2023/02/21 03:15:03;;;;;;;45.95;25.77;;;6.10;99.90;;;;;;4936307;28;20050;-74
2023/02/21 03:17:32;;;;;;;53.90;29.25;;;6.00;99.90;;;;;;4933218;29;20039;-75
2023/02/21 03:20:01;;;;;;;55.10;28.55;;;6.00;99.90;;;;;;4944804;29;20023;-74
2023/02/21 03:22:29;;;;;;;44.30;22.98;;;6.00;99.90;;;;;;4940725;28;20042;-74
2023/02/21 03:24:59;;;;;;;45.38;24.67;;;5.80;99.90;;;;;;4934934;28;20024;-75
2023/02/21 03:27:26;;;;;;;44.65;25.63;;;5.60;99.90;;;;;;4945412;28;20594;-75
2023/02/21 03:29:56;;;;;;;47.90;24.60;;;5.70;99.90;;;;;;4940291;28;20038;-75
2023/02/21 03:34:58;;;;;;;51.70;26.13;;;5.90;99.90;;;;;;4932948;29;20035;-75
2023/02/21 03:37:38;;;;;;;44.75;24.05;;;5.90;99.90;;;;;;4934719;28;20042;-75
2023/02/21 03:40:09;;;;;;;48.95;25.42;;;6.00;99.90;;;;;;4931636;28;20031;-74
2023/02/21 03:42:35;;;;;;;52.65;24.52;;;5.90;99.90;;;;;;4932488;28;20039;-74
2023/02/21 03:45:01;;;;;;;47.95;25.27;;;5.60;99.90;;;;;;4938521;28;20110;-76
2023/02/21 03:47:26;;;;;;;55.63;26.73;;;5.70;99.90;;;;;;4945793;28;20086;-74
2023/02/21 03:49:52;;;;;;;49.75;25.77;;;5.80;99.90;;;;;;4939653;29;20110;-74
2023/02/21 03:52:18;;;;;;;51.40;25.50;;;5.80;99.90;;;;;;4941491;29;20150;-76
2023/02/21 03:54:43;;;;;;;51.72;26.92;;;5.90;99.90;;;;;;4944021;28;20075;-74
2023/02/21 03:57:09;;;;;;;50.58;25.70;;;6.10;99.90;;;;;;4931098;29;20039;-75
2023/02/21 03:59:35;;;;;;;49.03;25.25;;;6.00;99.90;;;;;;4932133;28;20095;-75
2023/02/21 04:02:01;;;;;;;50.10;24.70;;;6.10;99.90;;;;;;4940159;29;20027;-74
2023/02/21 04:04:27;;;;;;;51.58;26.58;;;6.10;99.90;;;;;;4929540;29;20035;-75
2023/02/21 04:06:52;;;;;;;51.97;28.52;;;6.00;99.90;;;;;;4941479;29;20130;-76
2023/02/21 04:09:18;;;;;;;49.38;24.52;;;6.00;99.90;;;;;;4933881;28;20050;-77
2023/02/21 04:11:45;;;;;;;51.47;26.27;;;6.00;99.90;;;;;;4927343;28;20058;-76
2023/02/21 04:14:11;;;;;;;54.97;26.45;;;5.90;99.90;;;;;;4937775;28;20051;-77
2023/02/21 04:16:38;;;;;;;49.25;25.73;;;5.60;99.90;;;;;;4934459;28;20036;-76
2023/02/21 04:19:03;;;;;;;47.22;26.33;;;5.60;99.90;;;;;;4929597;28;20043;-76
2023/02/21 04:21:29;;;;;;;48.30;26.08;;;5.50;99.90;;;;;;4936548;29;20039;-75
2023/02/21 04:23:55;;;;;;;52.00;25.02;;;5.50;99.90;;;;;;4936423;28;20027;-75
2023/02/21 04:26:22;;;;;;;50.88;25.90;;;5.50;99.90;;;;;;4928224;28;20024;-75
2023/02/21 04:28:49;;;;;;;45.05;24.92;;;5.50;99.90;;;;;;4931469;28;20476;-76
2023/02/21 04:31:16;;;;;;;47.45;23.38;;;5.50;99.90;;;;;;4937944;28;20031;-75
2023/02/21 04:33:42;;;;;;;47.20;25.52;;;5.30;99.90;;;;;;4936992;28;20023;-74
2023/02/21 04:36:08;;;;;;;42.08;22.40;;;5.40;99.90;;;;;;4928826;29;20055;-77
2023/02/21 04:38:36;;;;;;;51.55;24.10;;;5.30;99.90;;;;;;4926951;29;20131;-77
2023/02/21 04:41:03;;;;;;;48.70;24.40;;;5.30;99.90;;;;;;4932479;29;20118;-76
2023/02/21 04:43:29;;;;;;;43.85;23.23;;;5.40;99.90;;;;;;4928907;28;20032;-76
2023/02/21 04:45:54;;;;;;;48.03;24.63;;;5.40;99.90;;;;;;4927856;28;20035;-77
2023/02/21 04:48:20;;;;;;;49.08;24.85;;;5.30;99.90;;;;;;4929925;29;20046;-75
2023/02/21 04:50:46;;;;;;;53.72;24.45;;;5.70;99.90;;;;;;4933993;29;20036;-76
2023/02/21 04:53:12;;;;;;;42.25;23.27;;;5.80;99.90;;;;;;4934648;28;20023;-76
2023/02/21 04:55:38;;;;;;;47.25;24.75;;;5.60;99.90;;;;;;4928506;28;20397;-76
2023/02/21 04:58:03;;;;;;;44.13;23.58;;;5.60;99.90;;;;;;4931456;28;20046;-76
2023/02/21 05:00:29;;;;;;;46.95;24.80;;;5.50;99.90;;;;;;4931589;28;20526;-80
2023/02/21 05:02:55;;;;;;;42.38;22.05;;;5.40;99.90;;;;;;4926904;28;20024;-75
2023/02/21 05:05:21;;;;;;;49.03;24.15;;;5.40;99.90;;;;;;4929441;28;20067;-81
2023/02/21 05:07:46;;;;;;;47.20;23.80;;;5.50;99.90;;;;;;4941580;29;20410;-76
2023/02/21 05:10:15;;;;;;;44.08;21.98;;;5.70;99.90;;;;;;4941034;28;20058;-77
2023/02/21 05:12:41;;;;;;;42.55;21.85;;;5.80;99.90;;;;;;4939747;28;20046;-76
2023/02/21 05:15:07;;;;;;;42.95;21.95;;;5.80;99.90;;;;;;4938877;28;20031;-76
2023/02/21 05:17:33;;;;;;;43.28;23.48;;;5.90;99.90;;;;;;4930023;28;20086;-77
2023/02/21 05:19:59;;;;;;;48.67;24.77;;;5.80;99.90;;;;;;4937334;29;20446;-75
2023/02/21 05:22:24;;;;;;;46.17;23.63;;;5.60;99.90;;;;;;4936857;29;20034;-75
2023/02/21 05:24:50;;;;;;;47.25;23.73;;;5.50;99.90;;;;;;4937176;29;20054;-76
2023/02/21 05:27:18;;;;;;;41.17;21.98;;;5.40;99.90;;;;;;4934151;28;20038;-75
2023/02/21 05:29:48;;;;;;;45.97;22.65;;;5.30;99.90;;;;;;4935843;28;20299;-78
2023/02/21 05:32:14;;;;;;;44.13;22.65;;;5.20;99.90;;;;;;4939467;29;20591;-75
2023/02/21 05:34:43;;;;;;;42.95;20.92;;;5.20;99.90;;;;;;4936787;28;20129;-76
2023/02/21 05:37:10;;;;;;;38.83;20.98;;;5.40;99.90;;;;;;4935899;28;20083;-77
2023/02/21 05:39:36;;;;;;;48.13;23.65;;;5.20;99.90;;;;;;4940881;28;20031;-76
2023/02/21 05:42:01;;;;;;;43.03;21.75;;;5.30;99.90;;;;;;4933893;28;20027;-76
2023/02/21 05:44:27;;;;;;;37.45;18.67;;;5.40;99.90;;;;;;4937048;28;20087;-77
2023/02/21 05:46:53;;;;;;;45.05;20.85;;;5.50;99.90;;;;;;4930032;28;20110;-75
2023/02/21 05:49:18;;;;;;;41.35;21.45;;;5.40;99.90;;;;;;4942679;28;20565;-75
2023/02/21 05:51:44;;;;;;;42.83;22.15;;;5.30;99.90;;;;;;4942618;28;20027;-77
2023/02/21 05:54:16;;;;;;;36.05;19.17;;;5.20;99.90;;;;;;4938859;28;20034;-76
2023/02/21 05:56:43;;;;;;;43.40;22.10;;;4.90;99.90;;;;;;4933411;28;20519;-76
2023/02/21 05:59:10;;;;;;;46.10;23.55;;;5.00;99.90;;;;;;4938863;28;20550;-76
2023/02/21 06:01:36;;;;;;;39.65;19.00;;;5.10;99.90;;;;;;4931235;28;20038;-76
2023/02/21 06:04:02;;;;;;;43.60;21.73;;;5.10;99.90;;;;;;4933249;28;20488;-76
2023/02/21 06:06:28;;;;;;;43.25;21.77;;;5.10;99.90;;;;;;4933329;28;20086;-75
2023/02/21 06:08:53;;;;;;;45.90;21.98;;;5.20;99.90;;;;;;4942024;29;20103;-76
2023/02/21 06:11:26;;;;;;;41.88;24.38;;;5.10;99.90;;;;;;4929708;29;20091;-76
2023/02/21 06:13:54;;;;;;;49.35;22.85;;;5.10;99.90;;;;;;4936100;28;20051;-76
2023/02/21 06:16:21;;;;;;;48.90;24.58;;;5.00;99.90;;;;;;4932012;28;20415;-76
2023/02/21 06:18:51;;;;;;;46.38;23.17;;;5.10;99.90;;;;;;4936993;28;20040;-75
2023/02/21 06:21:17;;;;;;;44.53;22.50;;;5.10;99.90;;;;;;4945074;28;20077;-75
2023/02/21 06:23:43;;;;;;;41.80;20.73;;;4.90;99.90;;;;;;4937676;28;20118;-77
2023/02/21 06:26:08;;;;;;;39.58;20.48;;;4.70;99.90;;;;;;4939011;28;20561;-75
2023/02/21 06:28:34;;;;;;;39.95;21.52;;;4.90;99.90;;;;;;4927860;28;20039;-77
2023/02/21 06:31:00;;;;;;;39.05;20.70;;;5.10;99.90;;;;;;4929257;28;20027;-76
2023/02/21 06:33:26;;;;;;;40.28;21.35;;;5.30;99.90;;;;;;4943504;29;20035;-81
2023/02/21 06:35:52;;;;;;;38.40;21.55;;;5.50;99.90;;;;;;4938458;28;20040;-77
2023/02/21 06:38:17;;;;;;;47.85;22.50;;;5.50;99.90;;;;;;4934017;29;20031;-78
2023/02/21 06:40:44;;;;;;;44.40;22.08;;;5.50;99.90;;;;;;4932527;28;20623;-78
2023/02/21 06:43:10;;;;;;;40.97;22.15;;;5.30;99.90;;;;;;4930376;29;20178;-75
2023/02/21 06:45:35;;;;;;;42.83;22.60;;;5.30;99.90;;;;;;4936116;28;20121;-76
2023/02/21 06:48:02;;;;;;;42.10;22.30;;;5.20;99.90;;;;;;4929544;28;20525;-77
2023/02/21 06:50:28;;;;;;;43.17;22.35;;;4.90;99.90;;;;;;4927850;28;20117;-79
2023/02/21 06:52:54;;;;;;;51.22;24.08;;;4.90;99.90;;;;;;4930277;29;20035;-76
2023/02/21 06:55:21;;;;;;;45.72;22.85;;;5.10;99.90;;;;;;4932115;29;20501;-77
2023/02/21 06:57:47;;;;;;;50.60;24.80;;;5.00;99.90;;;;;;4937101;29;20303;-77
2023/02/21 07:00:15;;;;;;;43.05;22.38;;;4.90;99.90;;;;;;4932630;28;20389;-76
2023/02/21 07:02:42;;;;;;;40.63;21.52;;;5.00;99.90;;;;;;4933212;29;20051;-76
2023/02/21 07:05:08;;;;;;;42.03;21.98;;;5.10;99.90;;;;;;4934165;29;20093;-75
2023/02/21 07:07:34;;;;;;;42.10;20.55;;;5.20;99.90;;;;;;4927315;29;20111;-79
2023/02/21 07:09:59;;;;;;;38.92;21.45;;;5.30;99.90;;;;;;4928949;28;20082;-78
2023/02/21 07:12:26;;;;;;;40.63;20.42;;;5.20;99.90;;;;;;4924517;29;20118;-77
2023/02/21 07:14:53;;;;;;;46.63;19.25;;;5.10;99.90;;;;;;4931284;28;20070;-76
2023/02/21 07:17:19;;;;;;;42.20;21.65;;;5.10;99.90;;;;;;4931553;28;20035;-76
2023/02/21 07:19:44;;;;;;;42.28;23.00;;;5.10;99.90;;;;;;4932258;29;20039;-76
2023/02/21 07:22:10;;;;;;;43.13;23.50;;;5.10;99.90;;;;;;4925277;28;20474;-78
2023/02/21 07:24:36;;;;;;;36.75;19.75;;;5.20;99.90;;;;;;4934375;28;20047;-76
2023/02/21 07:27:02;;;;;;;39.35;20.20;;;5.20;99.90;;;;;;4934794;28;20134;-76
2023/02/21 07:29:28;;;;;;;41.85;22.05;;;5.10;99.90;;;;;;4932284;28;20530;-77
2023/02/21 07:31:54;;;;;;;42.80;23.00;;;5.10;99.90;;;;;;4942520;28;20050;-75
2023/02/21 07:34:21;;;;;;;43.10;22.63;;;5.10;99.90;;;;;;4934414;29;20039;-77
2023/02/21 07:36:46;;;;;;;40.90;23.92;;;5.20;99.90;;;;;;4938547;28;20111;-77
2023/02/21 07:39:12;;;;;;;46.85;23.95;;;5.30;99.90;;;;;;4932624;29;20046;-76
2023/02/21 07:41:38;;;;;;;45.17;22.83;;;5.20;99.90;;;;;;4939670;28;20462;-75
2023/02/21 07:44:04;;;;;;;39.33;20.83;;;5.20;99.90;;;;;;4939903;28;20097;-77
2023/02/21 07:46:29;;;;;;;39.33;17.65;;;5.30;99.90;;;;;;4941384;28;20055;-75
2023/02/21 07:48:55;;;;;;;37.83;20.58;;;5.30;99.90;;;;;;4942899;29;20134;-76
2023/02/21 07:51:21;;;;;;;37.25;19.30;;;5.30;99.90;;;;;;4939320;28;20484;-77
2023/02/21 07:53:47;;;;;;;37.00;18.40;;;5.30;99.90;;;;;;4935975;28;20059;-76
2023/02/21 07:56:13;;;;;;;41.10;18.83;;;5.30;99.90;;;;;;4940064;28;20039;-76
2023/02/21 07:58:38;;;;;;;40.90;20.42;;;5.30;99.90;;;;;;4937127;28;20119;-76
2023/02/21 08:01:05;;;;;;;41.95;20.80;;;5.50;99.90;;;;;;4943001;28;20035;-75
2023/02/21 08:03:31;;;;;;;33.58;18.75;;;5.60;99.90;;;;;;4931625;29;20090;-76
2023/02/21 08:05:58;;;;;;;41.65;23.05;;;5.70;99.90;;;;;;4929540;29;20028;-77
2023/02/21 08:08:24;;;;;;;48.42;22.30;;;5.70;99.90;;;;;;4939896;28;20059;-76
2023/02/21 08:10:50;;;;;;;43.42;23.75;;;5.80;99.90;;;;;;4943922;29;20041;-76
2023/02/21 08:13:16;;;;;;;40.92;22.38;;;5.80;99.90;;;;;;4944452;28;20059;-76
2023/02/21 08:15:42;;;;;;;41.58;21.67;;;5.60;99.90;;;;;;4938375;28;20486;-76
2023/02/21 08:18:17;;;;;;;42.10;21.70;;;5.60;99.90;;;;;;4935678;28;20063;-75
2023/02/21 08:20:43;;;;;;;48.45;22.85;;;5.70;99.90;;;;;;4931030;29;20023;-73
2023/02/21 08:23:09;;;;;;;46.08;23.33;;;5.70;99.90;;;;;;4928716;28;20402;-74
2023/02/21 08:25:34;;;;;;;48.90;26.55;;;5.80;99.90;;;;;;4927233;28;20039;-74
2023/02/21 08:28:00;;;;;;;40.05;21.98;;;5.80;99.90;;;;;;4929307;28;20036;-75
2023/02/21 08:30:26;;;;;;;42.08;22.40;;;5.70;99.90;;;;;;4932916;28;20039;-74
2023/02/21 08:32:51;;;;;;;58.92;25.40;;;5.70;99.90;;;;;;4928741;28;20031;-74
2023/02/21 08:35:19;;;;;;;49.72;24.15;;;5.80;99.90;;;;;;4928128;29;20039;-76
2023/02/21 08:37:46;;;;;;;45.65;23.13;;;5.80;99.90;;;;;;4927024;28;20040;-78
2023/02/21 08:40:13;;;;;;;48.05;25.40;;;5.80;99.90;;;;;;4930813;28;20031;-76
2023/02/21 08:42:39;;;;;;;42.45;22.65;;;5.90;99.90;;;;;;4949700;29;20118;-77
2023/02/21 08:45:05;;;;;;;44.60;23.42;;;6.00;99.90;;;;;;4932975;28;20126;-76
2023/02/21 08:47:34;;;;;;;46.58;24.52;;;6.00;99.90;;;;;;4935295;28;20496;-76
2023/02/21 08:50:00;;;;;;;42.25;24.15;;;6.10;99.90;;;;;;4945753;29;20624;-76
2023/02/21 08:52:26;;;;;;;45.08;22.83;;;6.30;99.90;;;;;;4933801;29;20050;-77
2023/02/21 08:54:52;;;;;;;43.03;22.45;;;6.30;99.90;;;;;;4939405;29;20046;-76
2023/02/21 08:57:17;;;;;;;42.88;23.67;;;6.40;99.90;;;;;;4931471;29;20036;-76
2023/02/21 08:59:44;;;;;;;43.47;23.88;;;6.40;99.90;;;;;;4932411;29;20421;-76
2023/02/21 09:02:17;;;;;;;46.83;24.90;;;6.50;99.90;;;;;;4937889;29;20056;-76
2023/02/21 09:04:45;;;;;;;47.72;25.50;;;6.50;99.90;;;;;;4932768;29;20032;-76
2023/02/21 09:07:12;;;;;;;49.63;26.25;;;6.60;99.90;;;;;;4935623;29;20032;-77
2023/02/21 09:09:38;;;;;;;65.95;24.58;;;6.60;99.90;;;;;;4931486;29;20078;-77
2023/02/21 09:12:07;;;;;;;41.20;21.67;;;7.10;99.90;;;;;;4938411;29;20023;-76
2023/02/21 09:14:34;;;;;;;47.38;21.35;;;6.80;99.90;;;;;;4942687;29;20051;-76
2023/02/21 09:17:00;;;;;;;40.70;22.33;;;7.10;99.90;;;;;;4932323;29;20020;-76
2023/02/21 09:19:25;;;;;;;39.00;20.73;;;6.90;99.90;;;;;;4931306;29;20457;-77
2023/02/21 09:21:54;;;;;;;42.22;22.45;;;6.80;99.90;;;;;;4934037;28;20043;-76
2023/02/21 09:24:24;;;;;;;41.08;21.67;;;6.80;99.90;;;;;;4945533;29;20062;-76
2023/02/21 09:26:53;;;;;;;42.25;23.35;;;6.80;99.90;;;;;;4933737;28;20030;-76
2023/02/21 09:29:20;;;;;;;47.33;26.40;;;6.80;99.90;;;;;;4948471;29;20122;-75
2023/02/21 09:31:45;;;;;;;43.17;24.60;;;6.80;99.90;;;;;;4941127;28;20024;-78
2023/02/21 09:34:11;;;;;;;45.63;25.17;;;6.90;99.90;;;;;;4933403;28;20043;-77
2023/02/21 09:36:37;;;;;;;47.45;26.70;;;7.00;99.90;;;;;;4935739;28;20046;-75
2023/02/21 09:39:05;;;;;;;47.15;24.92;;;7.00;99.90;;;;;;4937049;29;20130;-77
2023/02/21 09:41:33;;;;;;;45.38;23.73;;;7.10;99.90;;;;;;4934372;28;20035;-76
2023/02/21 09:44:00;;;;;;;45.63;23.70;;;7.20;99.90;;;;;;4950806;28;20034;-75
2023/02/21 09:46:42;;;;;;;43.05;22.17;;;7.20;99.90;;;;;;4943243;28;20032;-76
2023/02/21 09:49:17;;;;;;;48.13;25.65;;;7.20;99.90;;;;;;4939005;29;20035;-76
2023/02/21 09:51:43;;;;;;;45.20;24.00;;;7.40;99.90;;;;;;4942667;28;20034;-76
2023/02/21 09:54:39;;;;;;;43.13;22.90;;;7.60;99.90;;;;;;4935948;28;20481;-77
2023/02/21 09:57:12;;;;;;;43.15;23.02;;;7.80;99.90;;;;;;4935040;28;20090;-76
2023/02/21 09:59:37;;;;;;;43.47;23.70;;;7.70;99.90;;;;;;4932048;28;20094;-78
2023/02/21 10:02:09;;;;;;;43.90;24.02;;;7.80;99.90;;;;;;4942042;28;20031;-75
2023/02/21 10:05:06;;;;;;;45.22;24.05;;;7.80;99.90;;;;;;4939900;28;20613;-76
2023/02/21 10:07:34;;;;;;;43.20;22.70;;;7.90;99.90;;;;;;4931809;29;20027;-76
2023/02/21 10:10:10;;;;;;;44.13;24.60;;;8.00;99.90;;;;;;4930993;29;20027;-77
2023/02/21 10:12:42;;;;;;;40.40;22.92;;;8.10;99.90;;;;;;4930103;29;20567;-77
2023/02/21 10:15:19;;;;;;;51.78;23.65;;;8.10;99.90;;;;;;4939014;28;20067;-76
2023/02/21 10:18:25;;;;;;;40.15;22.67;;;8.30;99.90;;;;;;4949412;29;20508;-77
2023/02/21 10:21:01;;;;;;;44.88;22.58;;;8.20;99.90;;;;;;4922676;29;20039;-79
2023/02/21 10:23:47;;;;;;;39.30;19.92;;;8.30;99.90;;;;;;4943525;28;20031;-75
2023/02/21 10:26:32;;;;;;;40.15;21.67;;;8.50;99.90;;;;;;4938598;28;21046;-75
2023/02/21 10:28:59;;;;;;;39.67;21.33;;;8.60;99.90;;;;;;4937557;29;20032;-76
2023/02/21 10:31:37;;;;;;;40.50;24.10;;;8.70;99.90;;;;;;4935243;28;20063;-75
2023/02/21 10:34:06;;;;;;;38.45;22.20;;;8.80;99.90;;;;;;4943576;28;20023;-76
2023/02/21 10:36:33;;;;;;;38.10;23.02;;;8.90;99.90;;;;;;4934137;28;20066;-75
2023/02/21 10:39:12;;;;;;;36.33;20.70;;;8.90;99.90;;;;;;4937663;29;20043;-75
2023/02/21 10:41:40;;;;;;;37.33;20.35;;;8.90;99.90;;;;;;4938464;28;20043;-75
2023/02/21 10:44:21;;;;;;;36.22;20.17;;;8.90;99.90;;;;;;4934852;29;20032;-76
2023/02/21 10:46:58;;;;;;;39.97;20.35;;;9.10;99.90;;;;;;4936946;28;20028;-75
2023/02/21 10:49:48;;;;;;;38.60;20.83;;;9.30;99.90;;;;;;4930136;29;20114;-75
2023/02/21 10:52:19;;;;;;;40.15;19.48;;;9.40;99.90;;;;;;4930099;29;20024;-76
2023/02/21 10:55:08;;;;;;;36.05;19.00;;;9.50;99.90;;;;;;4937372;29;20034;-75
2023/02/21 10:57:41;;;;;;;31.77;18.85;;;9.60;99.90;;;;;;4936922;29;20809;-75
2023/02/21 11:00:09;;;;;;;48.38;26.02;;;9.70;99.90;;;;;;4934547;29;20059;-76
2023/02/21 11:02:43;;;;;;;42.90;24.35;;;9.80;99.90;;;;;;4941859;28;20112;-75
2023/02/21 11:05:19;;;;;;;37.10;21.30;;;10.00;99.90;;;;;;4941599;29;20031;-77
2023/02/21 11:07:56;;;;;;;35.70;20.10;;;10.10;99.90;;;;;;4935115;29;20043;-76
2023/02/21 11:10:32;;;;;;;31.13;17.25;;;10.20;99.70;;;;;;4933300;29;20027;-76
2023/02/21 11:13:19;;;;;;;31.83;17.27;;;10.20;99.00;;;;;;4931289;28;20047;-76
2023/02/21 11:15:45;;;;;;;38.65;19.20;;;10.20;99.40;;;;;;4937517;28;20053;-74
2023/02/21 11:18:15;;;;;;;31.98;18.25;;;10.30;99.30;;;;;;4936389;29;20440;-77
2023/02/21 11:20:41;;;;;;;35.65;18.10;;;10.40;99.30;;;;;;4937957;28;20625;-76
2023/02/21 11:23:29;;;;;;;33.13;18.70;;;10.60;99.10;;;;;;4934692;28;20031;-76
2023/02/21 11:26:11;;;;;;;36.25;19.70;;;10.70;98.60;;;;;;4933115;28;20613;-76
2023/02/21 11:28:45;;;;;;;33.08;16.77;;;10.80;98.50;;;;;;4936934;28;20436;-76
2023/02/21 11:31:21;;;;;;;29.63;17.95;;;10.90;98.20;;;;;;4942097;28;20028;-77
2023/02/21 11:33:56;;;;;;;32.35;17.85;;;11.00;98.00;;;;;;4936637;29;20044;-75
2023/02/21 11:36:37;;;;;;;27.67;16.98;;;10.90;97.70;;;;;;4930999;28;20067;-77
2023/02/21 11:39:22;;;;;;;34.13;18.55;;;10.90;97.70;;;;;;4928875;28;20065;-77
2023/02/21 11:42:03;;;;;;;36.33;19.25;;;11.10;97.50;;;;;;4937411;28;20027;-78
2023/02/21 11:44:38;;;;;;;29.00;17.30;;;11.50;97.30;;;;;;4929988;28;20028;-75
2023/02/21 11:47:13;;;;;;;28.80;15.88;;;11.60;96.90;;;;;;4933182;28;20037;-77
2023/02/21 11:49:47;;;;;;;;;;;11.60;96.60;;;;;;4929233;28;20036;-76
2023/02/21 11:52:23;;;;;;;28.83;17.00;;;11.60;96.20;;;;;;4929467;29;19910;-76
2023/02/21 11:54:49;;;;;;;32.75;17.05;;;11.50;96.30;;;;;;4943101;28;20031;-78
2023/02/21 11:57:26;;;;;;;59.38;20.20;;;11.60;96.20;;;;;;4928585;28;20118;-77
2023/02/21 12:00:12;;;;;;;36.08;20.30;;;11.70;96.50;;;;;;4937012;28;20549;-76
2023/02/21 12:02:53;;;;;;;34.13;18.60;;;11.90;96.10;;;;;;4940464;28;20035;-76
2023/02/21 12:05:47;;;;;;;30.20;16.50;;;12.10;95.80;;;;;;4932377;28;20035;-77
2023/02/21 12:08:24;;;;;;;33.50;16.90;;;12.00;96.00;;;;;;4935742;28;20035;-76
2023/02/21 12:11:13;;;;;;;32.33;17.90;;;12.10;96.50;;;;;;4929423;28;20039;-79
2023/02/21 12:14:02;;;;;;;38.45;17.02;;;12.40;95.80;;;;;;4932097;28;20082;-78
2023/02/21 12:16:55;;;;;;;27.98;16.50;;;12.30;95.50;;;;;;4931929;28;20094;-75
2023/02/21 12:19:43;;;;;;;31.33;17.05;;;12.30;95.30;;;;;;4943430;29;20047;-76
2023/02/21 12:22:14;;;;;;;31.35;17.08;;;12.60;95.20;;;;;;4939258;28;20023;-75
2023/02/21 12:25:15;;;;;;;33.47;18.00;;;12.80;94.80;;;;;;4939554;28;20098;-75
2023/02/21 12:28:03;;;;;;;29.77;17.75;;;12.60;94.80;;;;;;4934788;28;20493;-76
2023/02/21 12:30:36;;;;;;;29.77;15.43;;;12.20;94.90;;;;;;4930204;28;20059;-78
2023/02/21 12:33:29;;;;;;;32.78;16.35;;;12.30;95.00;;;;;;4931386;28;20374;-79
2023/02/21 12:36:11;;;;;;;27.58;15.13;;;12.40;95.10;;;;;;4927945;29;20030;-78
2023/02/21 12:38:59;;;;;;;29.00;15.10;;;12.70;94.60;;;;;;4929376;29;20063;-81
2023/02/21 12:41:30;;;;;;;30.17;15.65;;;13.10;94.80;;;;;;4927526;29;20362;-79
2023/02/21 12:44:16;;;;;;;25.17;13.98;;;13.00;94.00;;;;;;4928192;29;20031;-78
2023/02/21 12:46:56;;;;;;;34.75;14.50;;;13.10;94.90;;;;;;4930665;29;20122;-77
2023/02/21 12:49:49;;;;;;;23.50;14.23;;;13.30;93.60;;;;;;4931318;29;20028;-79
2023/02/21 12:52:22;;;;;;;32.03;17.40;;;13.30;93.60;;;;;;4928193;29;20039;-78
2023/02/21 12:55:13;;;;;;;33.92;17.98;;;13.40;93.80;;;;;;4933746;29;20083;-78
2023/02/21 12:57:47;;;;;;;34.35;17.92;;;13.30;94.10;;;;;;4930884;29;20047;-79
2023/02/21 13:00:21;;;;;;;29.23;17.90;;;13.20;94.20;;;;;;4929366;29;20505;-79
2023/02/21 13:02:58;;;;;;;34.75;20.42;;;13.00;94.00;;;;;;4932916;29;20211;-78
2023/02/21 13:06:10;;;;;;;35.67;19.67;;;13.10;94.50;;;;;;4926734;29;20034;-79
2023/02/21 13:08:46;;;;;;;34.13;19.67;;;13.40;95.00;;;;;;4928991;29;20625;-78
2023/02/21 13:11:19;;;;;;;33.60;19.98;;;13.70;94.60;;;;;;4941429;29;20481;-79
2023/02/21 13:13:46;;;;;;;37.20;21.98;;;13.70;94.80;;;;;;4944234;29;20055;-78
2023/02/21 13:16:13;;;;;;;41.92;23.65;;;13.90;94.80;;;;;;4933138;29;20024;-78
2023/02/21 13:18:58;;;;;;;42.30;23.70;;;13.70;94.90;;;;;;4931275;29;20036;-77
2023/02/21 13:21:54;;;;;;;42.88;23.70;;;13.70;95.10;;;;;;4931918;29;20486;-79
2023/02/21 13:24:30;;;;;;;49.08;26.60;;;13.70;95.00;;;;;;4932174;29;20079;-79
2023/02/21 13:27:36;;;;;;;40.47;24.17;;;13.90;95.30;;;;;;4933226;29;20474;-77
2023/02/21 13:30:13;;;;;;;43.65;23.98;;;13.80;95.20;;;;;;4905719;29;20039;-78
2023/02/21 13:32:48;;;;;;;43.63;24.77;;;13.60;95.20;;;;;;4954394;29;20167;-78
2023/02/21 13:35:20;;;;;;;48.83;25.30;;;13.50;95.60;;;;;;4954606;29;20031;-79
2023/02/21 13:37:50;;;;;;;46.60;25.15;;;13.50;95.80;;;;;;4954161;29;20050;-79
2023/02/21 13:40:24;;;;;;;47.78;25.70;;;13.60;96.10;;;;;;4953984;28;20035;-78
2023/02/21 13:43:06;;;;;;;45.97;27.13;;;13.80;95.70;;;;;;4953846;29;20027;-78
2023/02/21 13:45:32;;;;;;;48.35;26.30;;;13.80;95.60;;;;;;4953888;29;20035;-80
2023/02/21 13:48:00;;;;;;;47.70;25.92;;;13.90;95.50;;;;;;4953157;29;20023;-78
2023/02/21 13:50:38;;;;;;;42.35;25.50;;;14.00;95.30;;;;;;4953501;29;20046;-78
2023/02/21 13:53:07;;;;;;;45.88;24.30;;;14.10;95.20;;;;;;4953511;29;20038;-78
2023/02/21 13:55:35;;;;;;;45.63;25.48;;;14.10;95.30;;;;;;4947826;28;20034;-79
2023/02/21 13:58:00;;;;;;;46.35;28.08;;;14.20;95.80;;;;;;4934123;29;20028;-78
2023/02/21 14:00:26;;;;;;;43.50;25.77;;;14.30;95.50;;;;;;4934151;29;20488;-79
2023/02/21 14:03:24;;;;;;;52.80;27.10;;;14.40;95.40;;;;;;4934100;29;20027;-78
2023/02/21 14:05:49;;;;;;;48.45;26.80;;;14.30;95.50;;;;;;4934004;29;20050;-78
2023/02/21 14:08:24;;;;;;;51.30;30.10;;;14.70;96.00;;;;;;4934366;29;20099;-77
2023/02/21 14:10:53;;;;;;;;;;;14.70;96.00;;;;;;4934476;29;20038;-76
2023/02/21 14:13:37;;;;;;;37.13;24.73;;;14.70;95.90;;;;;;4933904;29;19919;-77
2023/02/21 14:16:16;;;;;;;45.88;24.42;;;14.50;95.40;;;;;;4934421;29;20513;-75
2023/02/21 14:18:54;;;;;;;44.85;26.00;;;14.40;95.60;;;;;;4934140;29;20421;-75
2023/02/21 14:21:46;;;;;;;50.25;27.52;;;14.60;95.70;;;;;;4933706;29;20066;-77
2023/02/21 14:24:20;;;;;;;50.97;28.02;;;14.60;95.70;;;;;;4934281;29;20042;-75
2023/02/21 14:26:55;;;;;;;47.55;25.95;;;14.80;95.70;;;;;;4934389;29;20065;-77
2023/02/21 14:29:36;;;;;;;51.70;26.95;;;14.90;95.40;;;;;;4933937;29;20119;-76
2023/02/21 14:32:02;;;;;;;55.75;29.60;;;14.90;95.50;;;;;;4933713;29;20051;-76
2023/02/21 14:34:40;;;;;;;46.67;27.77;;;14.90;95.60;;;;;;4933834;29;20071;-76
2023/02/21 14:37:34;;;;;;;54.70;31.20;;;14.80;95.60;;;;;;4933987;29;20103;-76
2023/02/21 14:40:09;;;;;;;57.13;32.90;;;14.80;96.10;;;;;;4933787;29;20036;-76
2023/02/21 14:42:43;;;;;;;52.25;30.38;;;14.70;96.30;;;;;;4933364;29;20023;-75
2023/02/21 14:45:28;;;;;;;57.38;30.75;;;14.60;95.60;;;;;;4933654;29;20036;-78
2023/02/21 14:48:12;;;;;;;58.17;33.28;;;14.60;96.30;;;;;;4938421;29;20655;-76
2023/02/21 14:51:15;;;;;;;57.85;33.45;;;14.60;96.40;;;;;;4933260;29;20035;-76
2023/02/21 14:54:18;;;;;;;61.88;34.92;;;14.60;96.70;;;;;;4933552;29;20040;-75
2023/02/21 14:57:14;;;;;;;58.35;33.65;;;14.70;97.00;;;;;;4928505;29;20032;-76
2023/02/21 15:00:17;;;;;;;64.10;35.90;;;14.50;96.80;;;;;;4929339;29;20044;-76
2023/02/21 15:03:07;;;;;;;60.25;35.95;;;14.40;97.00;;;;;;4918167;29;20506;-80
2023/02/21 15:05:59;;;;;;;66.93;36.78;;;14.40;97.30;;;;;;4929355;29;20032;-80
2023/02/21 15:08:26;;;;;;;61.28;38.45;;;14.30;97.30;;;;;;4929290;29;20039;-77
2023/02/21 15:10:57;;;;;;;63.50;37.72;;;14.20;97.50;;;;;;4931996;29;20070;-76
2023/02/21 15:13:30;;;;;;;62.30;37.22;;;14.10;97.60;;;;;;4929324;29;20051;-76
2023/02/21 15:16:02;;;;;;;62.30;37.00;;;14.10;97.60;;;;;;4928604;29;20624;-78
2023/02/21 15:18:33;;;;;;;64.80;37.03;;;14.10;97.50;;;;;;4929637;29;20038;-75